| time (UTC) | temp C | wind direction | speed KPH | gust KPH | rain 1hr cm | rain 24hr cm | rain mn cm | humidity % | barometer mb |
| 20260509185016 | 15 | 0 | 8.0 | 32.2 | 0.00 | 0.00 | 0.00 | 75 | 1004.5 |
| 20260509184015 | 15 | 0 | 8.0 | 29.0 | 0.00 | 0.00 | 0.00 | 74 | 1004.6 |
| 20260509183016 | 15 | 0 | 8.0 | 33.8 | 0.00 | 0.00 | 0.00 | 74 | 1004.8 |
| 20260509182016 | 15 | 0 | 6.4 | 17.7 | 0.00 | 0.00 | 0.00 | 73 | 1004.8 |
| 20260509181016 | 15 | 0 | 8.0 | 20.9 | 0.00 | 0.00 | 0.00 | 72 | 1004.9 |
| 20260509180016 | 16 | 0 | 12.9 | 33.8 | 0.00 | 0.00 | 0.00 | 70 | 1004.9 |
| 20260509175036 | 16 | 0 | 4.8 | 9.7 | 0.00 | 0.00 | 0.00 | 71 | 1005.2 |
| 20260509174015 | 16 | 0 | 8.0 | 27.4 | 0.00 | 0.00 | 0.00 | 71 | 1005.3 |
| 20260509173015 | 16 | 0 | 6.4 | 16.1 | 0.00 | 0.00 | 0.00 | 71 | 1005.2 |
| 20260509172016 | 16 | 0 | 8.0 | 30.6 | 0.00 | 0.00 | 0.00 | 71 | 1005.4 |
| 20260509171016 | 16 | 0 | 6.4 | 19.3 | 0.00 | 0.00 | 0.00 | 70 | 1005.5 |
| 20260509170035 | 16 | 0 | 6.4 | 14.5 | 0.00 | 0.00 | 0.00 | 70 | 1005.3 |
| 20260509165015 | 16 | 0 | 4.8 | 14.5 | 0.00 | 0.00 | 0.00 | 69 | 1005.8 |
| 20260509164035 | 16 | 0 | 8.0 | 30.6 | 0.00 | 0.00 | 0.00 | 67 | 1005.7 |
| 20260509163017 | 16 | 0 | 6.4 | 19.3 | 0.00 | 0.00 | 0.00 | 66 | 1005.6 |
| 20260509162017 | 16 | 0 | 6.4 | 16.1 | 0.00 | 0.00 | 0.00 | 62 | 1005.8 |
| 20260509161017 | 16 | 0 | 4.8 | 9.7 | 0.00 | 0.00 | 0.00 | 61 | 1006.0 |
| 20260509160017 | 16 | 0 | 9.7 | 19.3 | 0.00 | 0.00 | 0.00 | 61 | 1006.0 |
| 20260509155017 | 16 | 0 | 8.0 | 19.3 | 0.00 | 0.00 | 0.00 | 62 | 1006.1 |
| 20260509154017 | 16 | 0 | 6.4 | 46.7 | 0.00 | 0.00 | 0.00 | 61 | 1006.2 |
| 20260509153017 | 16 | 0 | 11.3 | 37.0 | 0.00 | 0.00 | 0.00 | 61 | 1006.0 |
| 20260509152037 | 16 | 0 | 6.4 | 19.3 | 0.00 | 0.00 | 0.00 | 63 | 1006.0 |
| 20260509151017 | 16 | 0 | 11.3 | 32.2 | 0.00 | 0.00 | 0.00 | 60 | 1006.2 |
| 20260509150017 | 17 | 0 | 6.4 | 16.1 | 0.00 | 0.00 | 0.00 | 59 | 1006.4 |
| 20260509145017 | 17 | 0 | 4.8 | 16.1 | 0.00 | 0.00 | 0.00 | 59 | 1006.2 |
| 20260509144037 | 17 | 0 | 8.0 | 27.4 | 0.00 | 0.00 | 0.00 | 58 | 1006.5 |
| 20260509143017 | 17 | 0 | 6.4 | 19.3 | 0.00 | 0.00 | 0.00 | 55 | 1006.0 |
| 20260509142017 | 17 | 0 | 6.4 | 14.5 | 0.00 | 0.00 | 0.00 | 54 | 1005.9 |
| 20260509141037 | 17 | 0 | 8.0 | 24.1 | 0.00 | 0.00 | 0.00 | 52 | 1005.7 |
| 20260509140037 | 18 | 0 | 4.8 | 12.9 | 0.00 | 0.00 | 0.00 | 52 | 1006.2 |
| 20260509135017 | 18 | 0 | 4.8 | 9.7 | 0.00 | 0.00 | 0.00 | 52 | 1006.2 |
| 20260509134017 | 18 | 0 | 8.0 | 20.9 | 0.00 | 0.00 | 0.00 | 51 | 1006.2 |
| 20260509133037 | 19 | 0 | 6.4 | 17.7 | 0.00 | 0.00 | 0.00 | 52 | 1006.2 |
| 20260509132017 | 19 | 0 | 4.8 | 12.9 | 0.00 | 0.00 | 0.00 | 50 | 1006.5 |
| 20260509131017 | 19 | 0 | 4.8 | 12.9 | 0.00 | 0.00 | 0.00 | 53 | 1006.8 |
| 20260509130017 | 20 | 0 | 4.8 | 17.7 | 0.00 | 0.00 | 0.00 | 51 | 1006.9 |
| 20260509125017 | 19 | 0 | 4.8 | 17.7 | 0.00 | 0.00 | 0.00 | 53 | 1006.8 |
| 20260509124017 | 19 | 0 | 6.4 | 17.7 | 0.00 | 0.00 | 0.00 | 49 | 1007.1 |
| 20260509123056 | 19 | 0 | 6.4 | 20.9 | 0.00 | 0.00 | 0.00 | 52 | 1007.1 |
| 20260509122016 | 18 | 0 | 4.8 | 12.9 | 0.00 | 0.00 | 0.00 | 48 | 1007.6 |
| 20260509121017 | 18 | 0 | 6.4 | 33.8 | 0.00 | 0.00 | 0.00 | 48 | 1007.8 |
| 20260509120016 | 18 | 0 | 1.6 | 8.0 | 0.00 | 0.00 | 0.00 | 50 | 1008.1 |
| 20260509115036 | 18 | 0 | 6.4 | 17.7 | 0.00 | 0.00 | 0.00 | 50 | 1008.1 |
| 20260509114016 | 19 | 0 | 4.8 | 20.9 | 0.00 | 0.00 | 0.00 | 50 | 1008.1 |
| 20260509113016 | 20 | 0 | 8.0 | 24.1 | 0.00 | 0.00 | 0.00 | 49 | 1008.4 |
| 20260509112016 | 20 | 0 | 8.0 | 17.7 | 0.00 | 0.00 | 0.00 | 49 | 1008.7 |
| 20260509111016 | 20 | 0 | 8.0 | 25.7 | 0.00 | 0.00 | 0.00 | 51 | 1008.6 |
| 20260509110016 | 19 | 0 | 3.2 | 14.5 | 0.00 | 0.00 | 0.00 | 51 | 1008.9 |
| 20260509105016 | 19 | 0 | 8.0 | 29.0 | 0.00 | 0.00 | 0.00 | 50 | 1009.0 |
| 20260509104016 | 20 | 0 | 8.0 | 25.7 | 0.00 | 0.00 | 0.00 | 50 | 1009.3 |
| 20260509103016 | 19 | 0 | 8.0 | 29.0 | 0.00 | 0.00 | 0.00 | 53 | 1009.1 |
| 20260509102016 | 20 | 0 | 6.4 | 22.5 | 0.00 | 0.00 | 0.00 | 53 | 1009.3 |
| 20260509101036 | 20 | 0 | 6.4 | 16.1 | 0.00 | 0.00 | 0.00 | 50 | 1009.7 |
| 20260509100016 | 20 | 0 | 8.0 | 24.1 | 0.00 | 0.00 | 0.00 | 52 | 1009.6 |
| 20260509095016 | 20 | 0 | 6.4 | 16.1 | 0.00 | 0.00 | 0.00 | 50 | 1009.8 |
| 20260509094016 | 19 | 0 | 4.8 | 14.5 | 0.00 | 0.00 | 0.00 | 55 | 1010.0 |
| 20260509093016 | 19 | 0 | 4.8 | 12.9 | 0.00 | 0.00 | 0.00 | 54 | 1010.1 |
| 20260509092016 | 19 | 0 | 6.4 | 14.5 | 0.00 | 0.00 | 0.00 | 56 | 1010.2 |
| 20260509091016 | 19 | 203 | 3.2 | 8.0 | 0.00 | 0.00 | 0.00 | 61 | 1010.4 |
| 20260509090016 | 18 | 0 | 3.2 | 19.3 | 0.00 | 0.00 | 0.00 | 60 | 1010.5 |
| 20260509085016 | 17 | 0 | 3.2 | 16.1 | 0.00 | 0.00 | 0.00 | 65 | 1010.5 |
| 20260509084016 | 17 | 0 | 3.2 | 8.0 | 0.00 | 0.00 | 0.00 | 71 | 1010.7 |
| 20260509083016 | 16 | 0 | 4.8 | 8.0 | 0.00 | 0.00 | 0.00 | 74 | 1010.7 |
| 20260509082036 | 15 | 0 | 8.0 | 16.1 | 0.00 | 0.00 | 0.00 | 76 | 1010.9 |
| 20260509081016 | 15 | 0 | 4.8 | 8.0 | 0.00 | 0.00 | 0.00 | 78 | 1011.0 |
| 20260509080016 | 15 | 0 | 3.2 | 9.7 | 0.00 | 0.00 | 0.00 | 79 | 1011.0 |
| 20260509075016 | 15 | 0 | 3.2 | 8.0 | 0.00 | 0.00 | 0.00 | 81 | 1011.3 |
| 20260509074016 | 13 | 0 | 6.4 | 14.5 | 0.00 | 0.00 | 0.00 | 83 | 1011.3 |
| 20260509073015 | 12 | 0 | 1.6 | 6.4 | 0.00 | 0.00 | 0.00 | 86 | 1011.3 |
| 20260509072016 | 12 | 0 | 1.6 | 6.4 | 0.00 | 0.00 | 0.00 | 88 | 1011.6 |
| 20260509071016 | 11 | 0 | 1.6 | 4.8 | 0.00 | 0.00 | 0.00 | 88 | 1011.7 |
| 20260509070016 | 11 | 0 | 3.2 | 6.4 | 0.00 | 0.00 | 0.00 | 88 | 1011.6 |
| 20260509065035 | 10 | 0 | 3.2 | 8.0 | 0.00 | 0.00 | 0.00 | 89 | 1011.7 |
| 20260509064016 | 9 | 0 | 3.2 | 6.4 | 0.00 | 0.00 | 0.00 | 88 | 1011.8 |
| 20260509063016 | 8 | 0.0 | 1.6 | 0.00 | 0.00 | 0.00 | 88 | 1011.6 | |
| 20260509062035 | 8 | 0.0 | 1.6 | 0.00 | 0.00 | 0.00 | 87 | 1011.6 | |
| 20260509061015 | 8 | 0.0 | 3.2 | 0.00 | 0.00 | 0.00 | 87 | 1011.7 | |
| 20260509060015 | 8 | 0.0 | 0.0 | 0.00 | 0.00 | 0.00 | 87 | 1011.6 | |
| 20260509055035 | 8 | 0.0 | 3.2 | 0.00 | 0.00 | 0.00 | 87 | 1011.5 | |
| 20260509054035 | 8 | 0 | 1.6 | 3.2 | 0.00 | 0.00 | 0.00 | 87 | 1011.8 |
| 20260509053015 | 8 | 0.0 | 3.2 | 0.00 | 0.00 | 0.00 | 87 | 1011.9 | |
| 20260509052015 | 8 | 0 | 1.6 | 4.8 | 0.00 | 0.00 | 0.00 | 86 | 1011.8 |
| 20260509051037 | 8 | 0 | 3.2 | 6.4 | 0.00 | 0.00 | 0.00 | 86 | 1012.0 |
| 20260509050017 | 8 | 0 | 1.6 | 3.2 | 0.00 | 0.00 | 0.00 | 86 | 1012.0 |
| 20260509045017 | 8 | 0 | 1.6 | 3.2 | 0.00 | 0.00 | 0.00 | 86 | 1012.0 |
| 20260509044017 | 8 | 0 | 1.6 | 3.2 | 0.00 | 0.00 | 0.00 | 86 | 1012.0 |
| 20260509043017 | 8 | 0 | 1.6 | 4.8 | 0.00 | 0.00 | 0.00 | 86 | 1012.1 |
| 20260509042017 | 8 | 0.0 | 3.2 | 0.00 | 0.00 | 0.00 | 86 | 1012.2 | |
| 20260509041017 | 8 | 0 | 1.6 | 3.2 | 0.00 | 0.00 | 0.00 | 86 | 1012.1 |
| 20260509040017 | 8 | 0 | 1.6 | 6.4 | 0.00 | 0.00 | 0.00 | 86 | 1012.1 |
| 20260509035017 | 8 | 0.0 | 3.2 | 0.00 | 0.00 | 0.00 | 86 | 1012.2 | |
| 20260509034017 | 8 | 0 | 1.6 | 4.8 | 0.00 | 0.00 | 0.00 | 86 | 1012.2 |
| 20260509033037 | 8 | 0 | 1.6 | 6.4 | 0.00 | 0.00 | 0.00 | 86 | 1012.3 |
| 20260509032017 | 8 | 0 | 1.6 | 3.2 | 0.00 | 0.00 | 0.00 | 86 | 1012.5 |
| 20260509031017 | 8 | 0 | 1.6 | 3.2 | 0.00 | 0.00 | 0.00 | 86 | 1012.4 |
| 20260509030017 | 8 | 0 | 1.6 | 4.8 | 0.00 | 0.00 | 0.00 | 86 | 1012.6 |
| 20260509025017 | 8 | 0 | 1.6 | 4.8 | 0.00 | 0.00 | 0.00 | 86 | 1012.6 |
| 20260509024037 | 8 | 0.0 | 3.2 | 0.00 | 0.00 | 0.00 | 86 | 1012.9 | |
| 20260509023017 | 8 | 0.0 | 0.0 | 0.00 | 0.00 | 0.00 | 86 | 1013.0 | |
| 20260509022017 | 8 | 0.0 | 1.6 | 0.00 | 0.00 | 0.00 | 85 | 1013.1 | |
| 20260509021017 | 8 | 0 | 1.6 | 3.2 | 0.00 | 0.00 | 0.00 | 85 | 1013.2 |
| 20260509020017 | 8 | 0.0 | 3.2 | 0.00 | 0.00 | 0.00 | 86 | 1013.5 | |
| 20260509015016 | 8 | 0 | 1.6 | 3.2 | 0.00 | 0.00 | 0.00 | 86 | 1013.6 |
| 20260509014016 | 8 | 0 | 1.6 | 3.2 | 0.00 | 0.00 | 0.00 | 86 | 1013.6 |
| 20260509013017 | 8 | 0 | 1.6 | 3.2 | 0.00 | 0.00 | 0.00 | 86 | 1013.9 |
| 20260509012016 | 8 | 0 | 1.6 | 3.2 | 0.00 | 0.00 | 0.00 | 86 | 1014.0 |
| 20260509011036 | 8 | 0 | 1.6 | 3.2 | 0.00 | 0.00 | 0.00 | 86 | 1014.1 |
| 20260509010017 | 8 | 0 | 1.6 | 3.2 | 0.00 | 0.00 | 0.00 | 86 | 1014.4 |
| 20260509005016 | 8 | 0 | 1.6 | 3.2 | 0.00 | 0.00 | 0.00 | 86 | 1014.4 |
| 20260509004016 | 8 | 0 | 1.6 | 3.2 | 0.00 | 0.00 | 0.00 | 85 | 1014.5 |
| 20260509003016 | 8 | 0.0 | 1.6 | 0.00 | 0.00 | 0.00 | 86 | 1014.6 | |
| 20260509002057 | 8 | 0 | 1.6 | 3.2 | 0.00 | 0.00 | 0.00 | 85 | 1014.6 |
| 20260509001016 | 8 | 0 | 1.6 | 3.2 | 0.00 | 0.00 | 0.00 | 85 | 1014.8 |
| 20260509000036 | 8 | 0 | 1.6 | 3.2 | 0.00 | 0.00 | 0.00 | 85 | 1014.9 |
| 20260508235016 | 8 | 0 | 1.6 | 4.8 | 0.00 | 0.00 | 0.00 | 85 | 1014.9 |
| 20260508234016 | 8 | 0.0 | 3.2 | 0.00 | 0.00 | 0.00 | 85 | 1015.0 | |
| 20260508233016 | 8 | 0.0 | 0.0 | 0.00 | 0.00 | 0.00 | 85 | 1015.0 | |
| 20260508232016 | 9 | 0.0 | 0.0 | 0.00 | 0.00 | 0.00 | 85 | 1014.9 | |
| 20260508231016 | 9 | 0.0 | 0.0 | 0.00 | 0.00 | 0.00 | 85 | 1015.0 | |
| 20260508230036 | 9 | 0 | 1.6 | 3.2 | 0.00 | 0.00 | 0.00 | 85 | 1015.0 |
| 20260508225016 | 9 | 0.0 | 3.2 | 0.00 | 0.00 | 0.00 | 85 | 1015.1 | |
| 20260508224016 | 9 | 0 | 1.6 | 3.2 | 0.00 | 0.00 | 0.00 | 85 | 1015.3 |
| 20260508223036 | 9 | 0.0 | 1.6 | 0.00 | 0.00 | 0.00 | 85 | 1015.5 | |
| 20260508222016 | 9 | 0.0 | 1.6 | 0.00 | 0.00 | 0.00 | 85 | 1015.4 | |
| 20260508221016 | 9 | 0 | 1.6 | 3.2 | 0.00 | 0.00 | 0.00 | 85 | 1015.5 |
| 20260508220016 | 9 | 0.0 | 3.2 | 0.00 | 0.00 | 0.00 | 85 | 1015.8 | |
| 20260508215016 | 10 | 0.0 | 3.2 | 0.00 | 0.00 | 0.00 | 85 | 1015.8 | |
| 20260508214016 | 10 | 0 | 1.6 | 4.8 | 0.00 | 0.00 | 0.00 | 85 | 1015.9 |
| 20260508213016 | 10 | 0.0 | 0.0 | 0.00 | 0.00 | 0.00 | 85 | 1016.1 | |
| 20260508212015 | 10 | 0.0 | 0.0 | 0.00 | 0.00 | 0.00 | 85 | 1016.1 | |
| 20260508211016 | 10 | 0.0 | 0.0 | 0.00 | 0.00 | 0.00 | 85 | 1016.2 | |
| 20260508210016 | 10 | 0.0 | 1.6 | 0.00 | 0.00 | 0.00 | 85 | 1016.3 | |
| 20260508205036 | 10 | 0.0 | 1.6 | 0.00 | 0.00 | 0.00 | 85 | 1016.4 | |
| 20260508204036 | 10 | 0.0 | 1.6 | 0.00 | 0.00 | 0.00 | 85 | 1016.4 | |
| 20260508203016 | 10 | 0.0 | 1.6 | 0.00 | 0.00 | 0.00 | 85 | 1016.5 | |
| 20260508202015 | 11 | 0 | 1.6 | 4.8 | 0.00 | 0.00 | 0.00 | 85 | 1016.4 |
| 20260508201015 | 11 | 0.0 | 0.0 | 0.00 | 0.00 | 0.00 | 85 | 1016.6 | |
| 20260508200015 | 11 | 0 | 1.6 | 3.2 | 0.00 | 0.00 | 0.00 | 85 | 1016.7 |
| 20260508195015 | 11 | 0 | 1.6 | 4.8 | 0.00 | 0.00 | 0.00 | 85 | 1016.6 |
| 20260508194015 | 11 | 0.0 | 0.0 | 0.00 | 0.00 | 0.00 | 85 | 1016.7 | |
| 20260508193015 | 11 | 0 | 1.6 | 3.2 | 0.00 | 0.00 | 0.00 | 84 | 1016.9 |
| 20260508192017 | 11 | 0.0 | 3.2 | 0.00 | 0.00 | 0.00 | 85 | 1016.8 | |
| 20260508191017 | 11 | 0.0 | 1.6 | 0.00 | 0.00 | 0.00 | 84 | 1016.7 | |
| 20260508190017 | 11 | 0 | 1.6 | 3.2 | 0.00 | 0.00 | 0.00 | 84 | 1016.9 |